Weather observations for the past three days for
Hebbronville, Jim Hogg County Airport
Imperial (Metric)
Date Time (cdt) Wind (mph) Vis. (mi.) Weather Sky Cond. Temperature (ºF) Relative Humidity Wind Chill (°F) Heat Index (°F) Pressure Precipitation (in)
Air Dwpt 6 hour altimeter (in) sea level (mb) 1 hr 3 hr 6 hr
Max. Min.
08 04:35 Calm 8.00 Overcast OVC005 68 68 100% 29.87 0.0
08 04:15 NE 5 8.00 Overcast OVC006 67.8 67.8 100% 29.87 0.0
08 03:55 N 5 8.00 Overcast OVC005 67.8 67.8 100% 29.87 0.0
08 03:35 NE 6 7.00 Overcast OVC006 67.8 67.8 100% 29.87 0.0
08 03:15 NE 6 9.00 Overcast OVC008 68.2 68.2 100% 29.89 0.0
08 02:55 Calm 10.00 Overcast OVC010 68.5 68.4 99% 29.9 0.0
08 02:35 Calm 10.00 Overcast OVC011 68.5 68 98% 29.91 0.0
08 02:15 N 5 10.00 Overcast OVC012 68.7 67.8 97% 29.92 0.0
08 01:55 N 5 10.00 Overcast OVC013 68.7 68 98% 29.93 0.0
08 01:35 Calm 10.00 Overcast OVC014 68.9 67.5 95% 29.94 0.0
08 01:15 Calm 10.00 Overcast OVC014 68.4 67.8 98% 29.95 0.0
08 00:55 Calm 8.00 Overcast OVC014 68.5 67.3 72.9 67.8 96% 29.94 0.0 0.01
08 00:35 Calm 10.00 Overcast OVC015 68.5 67.3 96% 29.93 0.0
08 00:15 NE 3 10.00 Overcast OVC015 68.4 67.3 96% 29.93 0.0
07 23:55 N 8 7.00 Overcast OVC015 68 67.6 99% 29.91 0.0
07 23:35 N 7 6.00 Fog/Mist OVC015 67.8 67.6 99% 29.9 0.0
07 23:15 N 8 7.00 Overcast OVC016 67.8 67.8 100% 29.91 0.0
07 22:55 Calm 10.00 Overcast OVC018 68.4 67.8 98% 29.95 0.0
07 22:35 SW 5 10.00 Overcast OVC017 68.2 68 99% 29.97 0.0
07 22:15 Calm 10.00 Mostly Cloudy BKN015 68.2 67.8 99% 29.92 0.0
07 21:55 NE 10 10.00 A Few Clouds FEW016 68 67.6 99% 29.86 0.0 0.01 0.01
07 21:35 E 13 10.00 Light Rain FEW002 BKN016 68.2 67.8 99% 29.84 0.0 0.01
07 21:15 E 7 7.00 Light Rain SCT002 BKN006 BKN016 68.9 68 97% 29.89 0.0 0.01
07 20:55 SE 13 10.00 Light Rain FEW019 70.7 67.3 89% 29.89 0.0
07 20:35 E 8 9.00 Light Rain SCT019 71.2 67.5 88% 29.91 0.0
07 20:15 NE 6 10.00 A Few Clouds FEW018 71.8 66.7 84% 29.93 0.0
07 19:55 E 10 10.00 Fair CLR 72.1 66.7 83% 29.89 0.0
07 19:35 NE 10 10.00 Fair CLR 72.3 66.9 83% 29.89 0.0
07 19:15 NE 8 10.00 Fair CLR 72.7 66.9 82% 29.9 0.0
07 18:55 NE 10 10.00 Fair CLR 73.2 66.9 75.7 73 81% 29.89 0.0
07 18:35 NE 12 10.00 Fair CLR 73.4 67.1 81% 29.89 0.0
07 18:15 NE 10 10.00 Fair CLR 73.4 66.9 80% 29.89 0.0
07 17:55 NE 12 10.00 Fair CLR 73.8 67.6 81% 29.89 0.0
07 17:35 NE 10 10.00 Fair CLR 73.9 67.6 81% 29.89 0.0
07 17:15 E 10 10.00 Fair CLR 75 68 79% 76 29.88 0.0
07 16:55 E 9 10.00 Fair CLR 75.4 68.4 79% 76 29.89 0.0
07 16:35 NE 8 10.00 Fair CLR 75 68 79% 76 29.9 0.0
07 16:15 E 8 10.00 Fair CLR 74.8 68.2 80% 29.89 0.0
07 15:15 E 9 10.00 Fair CLR 73.8 67.5 81% 29.91 0.0
07 14:55 E 10 10.00 A Few Clouds FEW360 73.6 67.5 81% 29.92 0.0
07 14:35 E 13 10.00 A Few Clouds FEW360 73.8 67.5 81% 29.92 0.0
07 14:15 NE 13 10.00 A Few Clouds FEW360 74.3 67.6 80% 29.92 0.0
07 13:55 NE 13 10.00 A Few Clouds FEW370 74.1 67.5 80% 29.94 0.0
07 13:35 NE 12 10.00 A Few Clouds FEW370 75 67.5 77% 76 29.94 0.0
07 13:15 NE 10 10.00 Fair CLR 73.8 67.6 81% 29.95 0.0
07 12:55 NE 12 10.00 A Few Clouds FEW310 73.4 67.8 74.5 69.6 83% 29.96 0.0
07 12:35 NE 10 10.00 A Few Clouds FEW310 73.9 67.6 81% 29.95 0.0
07 12:15 NE 10 10.00 A Few Clouds FEW340 73.6 67.8 82% 29.95 0.0
07 11:55 E 9 10.00 Fair CLR 73.9 68 82% 29.95 0.0
07 11:35 E 8 10.00 Fair CLR 73 68 84% 29.95 0.0
07 11:15 NE 12 10.00 Fair CLR 72.3 68 86% 29.95 0.0
07 10:55 NE 10 9.00 Fair CLR 71.2 68 90% 29.95 0.0
07 10:35 NE 10 9.00 Fair CLR 71.2 68 90% 29.95 0.0
07 10:15 NE 10 9.00 Fair CLR 70.7 68.2 92% 29.95 0.0
07 09:55 NE 10 8.00 Fair CLR 70.2 68 93% 29.94 0.0
07 09:35 NE 10 8.00 Fair CLR 70 67.8 93% 29.95 0.0
07 09:15 NE 9 8.00 Fair CLR 69.8 67.6 93% 29.94 0.0
07 08:55 NE 8 10.00 Fair CLR 69.6 67.6 93% 29.94 0.0
07 08:35 NE 9 10.00 A Few Clouds FEW012 69.6 67.1 92% 29.93 0.0
07 08:15 NE 7 10.00 Fair CLR 69.6 67.5 93% 29.92 0.0
07 07:55 NE 9 9.00 A Few Clouds FEW010 69.8 68.2 95% 29.91 0.0
07 07:35 NE 12 8.00 A Few Clouds FEW010 69.6 68.4 96% 29.9 0.0
07 07:15 NE 12 8.00 A Few Clouds FEW012 70 68.2 94% 29.89 0.0
07 06:55 NE 10 10.00 Partly Cloudy SCT012 70.2 67.8 77.4 70 92% 29.89 0.0
07 06:35 NE 9 10.00 Mostly Cloudy BKN011 70.2 67.8 92% 29.89 0.0
07 06:15 NE 9 10.00 Mostly Cloudy BKN010 70.3 67.6 91% 29.87 0.0
07 05:55 NE 8 10.00 Mostly Cloudy BKN011 70.5 67.6 91% 29.87 0.0
07 05:35 NE 10 10.00 Overcast OVC011 70.7 67.6 90% 29.88 0.0
07 05:15 NE 8 10.00 Overcast OVC010 70.9 68.2 91% 29.87 0.0
07 04:55 NE 9 10.00 Overcast OVC008 71.1 69.4 95% 29.86 0.0
07 04:35 NE 8 10.00 Overcast OVC008 71.1 70 96% 29.86 0.0
07 04:15 NE 9 10.00 Overcast OVC008 70.9 70.5 99% 29.87 0.0
07 03:55 NE 9 8.00 Light Rain OVC005 71.1 71.1 100% 29.86 0.0
07 03:35 NE 12 6.00 Fog/Mist OVC004 72.5 72.5 100% 29.86 0.0
07 03:15 E 6 5.00 Fog/Mist OVC005 77 77 100% 78 29.87 0.0
07 02:55 E 7 5.00 Fog/Mist OVC005 77.4 77.4 100% 79 29.86 0.0
07 02:35 E 5 5.00 Fog/Mist OVC006 77.4 77.4 100% 79 29.86 0.0
07 02:15 NE 7 5.00 Fog/Mist SCT002 OVC006 77.4 77.4 100% 79 29.87 0.0
07 01:55 NE 9 5.00 Fog/Mist OVC002 77 77 100% 78 29.87 0.0
07 01:35 E 8 5.00 Fog/Mist OVC002 77.2 77.2 100% 78 29.86 0.0
07 01:15 E 8 5.00 Fog/Mist OVC002 77.2 77.2 100% 78 29.86 0.0
07 00:55 E 7 5.00 Fog/Mist OVC002 77.2 77.2 88.7 76.8 100% 78 29.86 0.0
07 00:15 E 6 4.00 Fog/Mist OVC001 77 77 100% 78 29.86 0.0
06 23:55 E 5 5.00 Fog/Mist FEW002 77.2 77.2 100% 78 29.86 0.0
06 23:35 E 5 6.00 Fog/Mist CLR 77.4 77.4 100% 79 29.85 0.0
06 23:15 E 3 6.00 Fog/Mist CLR 78.1 78.1 100% 81 29.85 0.0
06 22:55 NE 5 7.00 Fair CLR 78.8 78.8 100% 83 29.85 0.0
06 22:35 E 6 7.00 Fair CLR 79.3 79.3 100% 85 29.85 0.0
06 22:15 E 6 7.00 Fair CLR 79.7 79.5 99% 86 29.84 0.0
06 21:55 E 8 7.00 Fair CLR 80.8 79.9 97% 89 29.82 0.0
06 21:35 E 8 7.00 Fair CLR 81.5 79.9 95% 91 29.81 0.0
06 21:15 E 9 8.00 Fair CLR 82.4 79.9 92% 93 29.81 0.0
06 20:55 E 7 8.00 Fair CLR 83.1 78.6 86% 94 29.79 0.0
06 20:35 E 7 8.00 Fair CLR 84 78.6 84% 96 29.77 0.0
06 20:15 E 8 7.00 Fair CLR 84.7 78.4 81% 97 29.76 0.0
06 19:55 E 9 7.00 Fair CLR 86.4 78.3 77% 99 29.75 0.0
06 19:35 E 13 8.00 Fair CLR 87.1 77.5 73% 100 29.74 0.0
06 19:15 E 9 7.00 Fair CLR 88 77.4 71% 101 29.73 0.0
06 18:55 E 10 10.00 Fair CLR 89.4 76.5 90.3 82.9 66% 102 29.73 0.0
06 18:35 E 10 10.00 Fair CLR 89.4 76.1 65% 101 29.72 0.0
06 18:15 E 10 10.00 Fair CLR 89.6 76.5 65% 102 29.71 0.0
06 17:55 E 9 G 18 9.00 Fair CLR 89.6 76.3 65% 102 29.71 0.0
06 17:35 NE 8 9.00 Fair CLR 90.1 77 65% 103 29.71 0.0
06 17:15 NE 13 9.00 Fair CLR 90 77.2 66% 103 29.71 0.0
06 16:55 NE 7 9.00 Fair CLR 89.2 77 67% 102 29.72 0.0
06 16:35 NE 10 9.00 A Few Clouds FEW320 88.9 77 68% 101 29.72 0.0
06 16:15 Vrbl 7 9.00 A Few Clouds FEW370 88.7 77.7 70% 102 29.73 0.0
06 15:55 NE 8 9.00 A Few Clouds FEW360 88.7 77.5 70% 102 29.73 0.0
06 15:35 E 8 8.00 Partly Cloudy FEW310 SCT360 88.3 77.4 70% 101 29.74 0.0
06 15:15 N 10 8.00 A Few Clouds FEW300 87.1 77.4 73% 99 29.75 0.0
06 14:55 Vrbl 5 8.00 Fair CLR 86.9 77.5 74% 99 29.76 0.0
06 14:35 N 6 8.00 Fair CLR 86.4 77.2 74% 98 29.76 0.0
06 14:15 Vrbl 6 8.00 A Few Clouds FEW340 85.8 77.9 77% 98 29.77 0.0
06 13:55 Calm 8.00 Partly Cloudy FEW320 SCT380 85.3 77.7 78% 97 29.77 0.0
06 13:35 Calm 8.00 A Few Clouds FEW330 84.7 77.9 80% 96 29.77 0.0
06 13:15 Calm 7.00 Fair CLR 83.1 77.7 84% 93 29.78 0.0
06 12:55 Calm 7.00 Fair CLR 83.1 78.1 83.1 76.1 85% 93 29.79 0.0
06 12:35 Calm 7.00 A Few Clouds FEW380 82.8 77.9 85% 92 29.79 0.0
06 12:15 S 3 7.00 Fair CLR 82 77.7 87% 91 29.79 0.0
06 11:55 Calm 6.00 Fog/Mist CLR 81 77.9 90% 88 29.78 0.0
06 11:35 S 6 6.00 Fog/Mist CLR 81 78.1 91% 89 29.78 0.0
06 11:15 S 6 4.00 Fog/Mist FEW002 79.3 77.7 95% 84 29.78 0.0
06 10:55 S 6 4.00 Fog/Mist BKN004 78.4 77.7 98% 82 29.78 0.0
06 10:35 S 7 4.00 Fog/Mist BKN004 78.1 77.7 99% 81 29.77 0.0
06 10:15 S 7 4.00 Fog/Mist SCT002 78.3 77.5 98% 81 29.76 0.0
06 09:55 Vrbl 6 4.00 Fog/Mist OVC006 78.1 77.4 98% 81 29.76 0.0
06 09:35 SE 10 4.00 Fog/Mist BKN005 77.9 77.2 98% 80 29.76 0.0
06 09:15 SE 9 4.00 Fog/Mist OVC006 77.7 77.4 99% 80 29.76 0.0
06 08:55 SE 10 4.00 Fog/Mist OVC006 77.2 77 99% 78 29.75 0.0
06 08:35 SE 8 4.00 Fog/Mist OVC007 77.2 77.2 100% 78 29.76 0.0
06 08:15 E 7 4.00 Fog/Mist OVC006 77 77 100% 78 29.75 0.0
06 07:55 SE 6 4.00 Fog/Mist BKN002 76.8 76.8 100% 77 29.75 0.0
06 07:35 E 5 4.00 Fog/Mist SCT002 76.5 76.5 100% 76 29.75 0.0
06 07:15 E 5 4.00 Fog/Mist OVC005 76.3 76.3 100% 76 29.74 0.0
06 06:55 E 5 5.00 Fog/Mist OVC009 76.1 76.1 78.1 76.1 100% 75 29.73 0.0
06 06:35 E 3 6.00 Fog/Mist OVC009 76.3 76.3 100% 76 29.73 0.0
06 06:15 E 5 6.00 Fog/Mist BKN010 76.8 76.8 100% 77 29.73 0.0
06 05:55 E 6 8.00 Fair CLR 77 76.6 99% 78 29.72 0.0
06 05:35 E 5 8.00 Fair CLR 77.4 76.6 98% 79 29.72 0.0
06 05:15 E 3 8.00 A Few Clouds FEW007 77.4 76.8 98% 79 29.72 0.0
06 04:55 SE 3 9.00 Fair CLR 77.2 76.6 98% 78 29.71 0.0
06 04:35 SE 5 8.00 Fair CLR 77.2 76.6 98% 78 29.71 0.0
06 04:15 SE 5 6.00 Fog/Mist CLR 77.4 76.5 97% 79 29.71 0.0
06 03:55 SE 8 6.00 Fog/Mist CLR 77.4 76.5 97% 79 29.71 0.0
06 03:35 SE 8 6.00 Fog/Mist CLR 77.5 76.5 96% 79 29.71 0.0
06 03:15 SE 8 6.00 Fog/Mist CLR 77.5 76.6 97% 79 29.71 0.0
06 02:55 SE 9 7.00 Fair CLR 77.5 76.3 96% 79 29.71 0.0
06 02:35 SE 10 7.00 Fair CLR 77.9 76.6 96% 80 29.71 0.0
06 02:15 SE 10 7.00 Fair CLR 77.9 76.6 96% 80 29.71 0.0
06 01:55 SE 10 7.00 Fair CLR 78.1 76.5 95% 81 29.71 0.0
06 00:55 SE 10 7.00 Fair CLR 77.9 76.1 91.2 77.9 94% 80 29.71 0.0
06 00:35 SE 10 7.00 Fair CLR 78.4 76.1 93% 82 29.72 0.0
06 00:15 SE 8 7.00 Fair CLR 78.4 76.3 93% 82 29.73 0.0
05 23:55 SE 12 G 20 7.00 Fair CLR 79.3 76.3 90% 84 29.73 0.0
05 23:35 SE 10 7.00 Fair CLR 79.5 76.3 90% 84 29.73 0.0
05 23:15 SE 12 G 20 7.00 Fair CLR 79.7 76.1 89% 85 29.73 0.0
05 22:55 SE 15 8.00 Fair CLR 80.4 76.1 87% 86 29.72 0.0
05 22:35 SE 9 G 20 8.00 Fair CLR 80.6 75.9 86% 87 29.72 0.0
05 22:15 SE 13 G 20 7.00 Fair CLR 81 75.7 84% 87 29.71 0.0
05 21:55 SE 10 8.00 Fair CLR 81.9 75 80% 88 29.7 0.0
05 21:35 SE 14 8.00 Fair CLR 82.6 74.7 77% 89 29.69 0.0
05 21:15 SE 10 G 17 8.00 Fair CLR 83.7 74.1 73% 91 29.68 0.0
05 20:55 SE 12 8.00 Fair CLR 84.9 73.9 70% 92 29.66 0.0
05 20:35 SE 10 8.00 Fair CLR 85.5 73.8 68% 93 29.66 0.0
05 20:15 SE 9 6.00 Fair with Haze CLR 86.4 73.8 66% 94 29.65 0.0
05 19:55 SE 10 6.00 Fair with Haze CLR 88.2 73.4 62% 96 29.64 0.0
05 19:35 SE 12 7.00 Fair CLR 89.2 72.7 58% 97 29.64 0.0
05 19:15 SE 12 7.00 Fair CLR 90.5 72.5 56% 98 29.63 0.0
05 18:55 SE 12 8.00 Fair CLR 91.8 72.1 95.5 89.8 53% 100 29.63 0.0
05 18:35 SE 12 8.00 Fair CLR 93.4 72.3 50% 102 29.63 0.0
05 18:15 SE 9 8.00 Fair CLR 93.7 71.8 49% 102 29.63 0.0
05 17:55 SE 10 8.00 Fair CLR 94.6 70.7 46% 102 29.63 0.0
05 17:35 S 12 8.00 Fair CLR 94.5 71.1 47% 102 29.63 0.0
05 17:15 SE 12 G 17 8.00 Fair CLR 95.2 70.9 45% 103 29.63 0.0
05 16:55 SE 12 G 20 9.00 Fair CLR 94.1 70.9 47% 101 29.63 0.0
05 16:35 SE 13 G 18 8.00 Fair CLR 94.3 71.4 48% 102 29.64 0.0
05 16:15 S 14 G 20 8.00 Fair CLR 94.1 71.4 48% 102 29.65 0.0
05 15:55 S 12 8.00 Fair CLR 94.1 71.4 48% 102 29.66 0.0
05 15:35 Vrbl 7 9.00 Fair CLR 93.9 71.6 48% 102 29.67 0.0
05 15:15 SE 12 G 17 8.00 Fair CLR 93 71.8 50% 101 29.68 0.0
05 14:55 SE 13 G 18 9.00 Fair CLR 93 72.3 51% 101 29.7 0.0
05 14:35 S 10 8.00 Fair CLR 91.8 72.5 53% 100 29.7 0.0
05 14:15 S 7 8.00 A Few Clouds FEW340 91.6 72.3 53% 100 29.7 0.0
05 13:55 S 13 8.00 A Few Clouds FEW280 91.4 73.4 56% 100 29.71 0.0
05 13:35 S 12 G 20 9.00 Partly Cloudy FEW320 SCT340 91.4 73.4 56% 100 29.72 0.0
05 13:15 S 14 G 23 8.00 Partly Cloudy FEW330 SCT350 90.9 73.9 58% 100 29.72 0.0
05 12:55 S 12 8.00 A Few Clouds FEW380 89.8 74.3 90 74.3 60% 99 29.73 0.0
05 12:35 S 14 8.00 Fair CLR 89.1 73.8 61% 98 29.73 0.0
05 12:15 S 14 G 20 9.00 Fair CLR 88.2 74.1 63% 97 29.74 0.0
05 11:55 S 14 G 21 8.00 Fair CLR 87.3 73.9 65% 96 29.75 0.0
05 11:35 S 12 G 20 8.00 Fair CLR 86.2 74.1 67% 94 29.75 0.0
05 11:15 S 14 G 18 9.00 Fair CLR 84.7 73.6 69% 92 29.76 0.0
05 10:55 S 12 G 20 9.00 Fair CLR 83.5 73.9 73% 90 29.76 0.0
05 10:35 S 14 9.00 Fair CLR 82.6 74.3 76% 89 29.76 0.0
05 10:15 S 13 G 18 9.00 Fair CLR 81.1 74.1 79% 87 29.76 0.0
05 09:55 S 16 G 23 10.00 Fair CLR 80.1 74.1 82% 85 29.76 0.0
05 09:35 S 12 G 20 9.00 Fair CLR 79 73.9 85% 83 29.75 0.0
05 09:15 S 13 G 21 9.00 Fair CLR 77.4 73.9 89% 79 29.76 0.0
05 08:55 S 12 7.00 A Few Clouds FEW013 76.1 73.8 93% 76 29.75 0.0
05 08:35 S 12 7.00 A Few Clouds FEW013 75.9 73.8 93% 76 29.76 0.0
05 08:15 S 14 7.00 Fair CLR 75 73.6 95% 73 29.76 0.0
05 07:55 S 10 8.00 Fair CLR 74.7 73.4 96% 29.75 0.0
05 07:35 S 10 7.00 A Few Clouds FEW013 74.5 73.2 96% 29.75 0.0
05 07:15 S 10 8.00 A Few Clouds FEW013 74.3 73.4 97% 29.75 0.0
05 06:55 S 12 9.00 Partly Cloudy SCT013 74.3 73 74.3 73.2 96% 29.74 0.0
05 06:35 S 10 G 17 10.00 Partly Cloudy SCT013 74.3 73 96% 29.74 0.0
05 06:15 S 10 9.00 Partly Cloudy SCT013 74.1 72.9 96% 29.74 0.0
05 05:55 S 9 9.00 Partly Cloudy SCT013 73.9 72.7 96% 29.74 0.0
05 05:35 S 10 9.00 A Few Clouds FEW014 73.8 72.5 96% 29.73 0.0
05 05:15 S 12 9.00 Fair CLR 73.8 72.5 96% 29.73 0.0
05 04:55 S 12 10.00 Fair CLR 73.8 72.5 96% 29.74 0.0
Date Time (cdt) Wind (mph) Vis. (mi.) Weather Sky Cond. Air Dwpt Max. Min. Relative Humidity Wind Chill (°F) Heat Index (°F) altimeter (in) sea level (mb) 1 hr 3 hr 6 hr
6 hour
Temperature (ºF) Pressure Precipitation (in)